Pagina principale
METAR-TAF:

METAR-TAF

Aeroporti :

Valledupar, Colombia

latitudine: 10-26N, longitudine: 073-15W, altezza: 138 m

Osservazione

Il bollettino è stato emesso 53 minuti fa, alle 01:00 UTC
Vento 3 kt da est/sud-est, variando fra est e sud
Temperature 29°C
Umidità 79%
Pressione 1012 hPa
Visibilità 10 km o più
Poco nuvoloso ad un'altezza di 1500 ft

METAR: SKVP 210100Z 11003KT 090V180 9999 FEW015 29/25 Q1012

Ora: 20:53 (01:53 UTC)


TAF: mancante

Osservazioni e previsioni meteorologiche di più di 4000 aeroporti (messaggi METAR e TAF).

Le stazioni disponibili sono rappresentate dai dischi gialli e rossi sulla carta.

Puntare il mouse per vedere il nome della stazione.

Clicca sopra per visualizzare le osservazioni e previsioni meteorologiche.

Per cambiare la mappa : fare clic sui pulsanti verdi con una croce nera per ingrandire, il pulsante verde con un trattino per diminuire, o sulla freccia verde per le mappe adiacenti.


METAR-TAF: